createdAt,value
2022-09-21T00:01:47.537Z,90.00
2022-09-21T00:04:14.366Z,90.40
2022-09-21T00:06:40.923Z,90.50
2022-09-21T00:09:09.316Z,90.50
2022-09-21T00:11:36.710Z,90.30
2022-09-21T00:14:07.224Z,90.50
2022-09-21T00:16:34.126Z,90.20
2022-09-21T00:19:00.713Z,90.00
2022-09-21T00:21:34.972Z,89.90
2022-09-21T00:24:02.867Z,89.70
2022-09-21T00:26:30.945Z,89.90
2022-09-21T00:28:59.499Z,89.70
2022-09-21T00:31:26.953Z,89.80
2022-09-21T00:33:54.221Z,89.60
2022-09-21T00:36:22.733Z,89.60
2022-09-21T00:38:50.557Z,89.70
2022-09-21T00:41:17.411Z,89.90
2022-09-21T00:43:48.829Z,90.30
2022-09-21T00:46:18.600Z,90.40
2022-09-21T00:48:46.473Z,90.30
2022-09-21T00:51:13.345Z,90.50
2022-09-21T00:53:40.132Z,90.40
2022-09-21T00:56:07.016Z,90.50
2022-09-21T00:58:38.607Z,90.60
2022-09-21T01:01:05.553Z,90.70
2022-09-21T01:03:32.312Z,90.50
2022-09-21T01:05:58.962Z,90.30
2022-09-21T01:08:26.153Z,90.40
2022-09-21T01:11:01.518Z,90.30
2022-09-21T01:13:34.839Z,90.30
2022-09-21T01:16:13.861Z,90.30
2022-09-21T01:18:51.893Z,90.50
2022-09-21T01:21:20.075Z,90.50
2022-09-21T01:24:04.670Z,90.50
2022-09-21T01:26:57.332Z,90.50
2022-09-21T01:29:35.599Z,90.50
2022-09-21T01:32:06.540Z,90.60
2022-09-21T01:34:52.003Z,90.60
2022-09-21T01:37:24.316Z,90.40
2022-09-21T01:39:53.918Z,90.20
2022-09-21T01:42:21.509Z,90.20
2022-09-21T01:44:49.756Z,90.30
2022-09-21T01:47:17.329Z,90.00
2022-09-21T01:49:49.410Z,90.00
2022-09-21T01:52:38.167Z,89.90
2022-09-21T01:55:07.518Z,89.70
2022-09-21T01:57:47.733Z,89.50
2022-09-21T02:00:16.284Z,89.70
2022-09-21T02:03:09.441Z,89.80
2022-09-21T02:05:36.518Z,90.00
2022-09-21T02:08:05.426Z,90.10
2022-09-21T02:10:37.730Z,89.80
2022-09-21T02:13:05.920Z,89.60
2022-09-21T02:15:51.484Z,89.60
2022-09-21T02:18:37.494Z,89.80
2022-09-21T02:21:09.136Z,89.80
2022-09-21T02:23:43.609Z,89.90
2022-09-21T02:26:13.843Z,90.00
2022-09-21T02:28:40.602Z,90.20
2022-09-21T02:31:10.506Z,90.30
2022-09-21T02:33:50.631Z,90.40
2022-09-21T02:36:26.659Z,90.30
2022-09-21T02:38:55.628Z,90.30
2022-09-21T02:41:25.224Z,90.00
2022-09-21T02:44:06.920Z,90.10
2022-09-21T02:46:50.272Z,89.90
2022-09-21T02:49:19.402Z,89.80
2022-09-21T02:51:47.754Z,89.50
2022-09-21T02:54:16.652Z,89.10
2022-09-21T02:56:45.395Z,88.80
2022-09-21T02:59:12.365Z,88.90
2022-09-21T03:01:39.986Z,88.70
2022-09-21T03:04:06.854Z,88.70
2022-09-21T03:06:34.077Z,88.40
2022-09-21T03:09:00.963Z,88.50
2022-09-21T03:11:27.750Z,88.30
2022-09-21T03:13:54.552Z,88.50
2022-09-21T03:16:22.693Z,88.60
2022-09-21T03:18:49.492Z,88.70
2022-09-21T03:21:16.110Z,88.80
2022-09-21T03:23:42.941Z,88.90
2022-09-21T03:26:09.629Z,88.80
2022-09-21T03:28:36.487Z,88.90
2022-09-21T03:31:03.130Z,88.60
2022-09-21T03:33:29.932Z,88.80
2022-09-21T03:35:56.814Z,88.90
2022-09-21T03:38:24.948Z,88.70
2022-09-21T03:40:51.756Z,88.80
2022-09-21T03:43:18.355Z,88.70
2022-09-21T03:45:45.090Z,88.50
2022-09-21T03:48:12.055Z,88.80
2022-09-21T03:50:39.039Z,89.00
2022-09-21T03:53:06.104Z,88.90
2022-09-21T03:55:33.229Z,89.10
2022-09-21T03:58:00.149Z,89.40
2022-09-21T04:00:26.851Z,89.20
2022-09-21T04:02:53.723Z,89.20
2022-09-21T04:05:21.907Z,88.90
2022-09-21T04:07:49.291Z,89.00
2022-09-21T04:10:17.842Z,89.50
2022-09-21T04:12:44.748Z,89.50
2022-09-21T04:15:12.387Z,89.50
2022-09-21T04:17:40.291Z,89.90
2022-09-21T04:20:11.298Z,89.30
2022-09-21T04:22:43.146Z,89.10
2022-09-21T04:25:10.635Z,89.40
2022-09-21T04:27:37.232Z,89.20
2022-09-21T04:30:04.923Z,89.10
2022-09-21T04:32:32.558Z,89.10
2022-09-21T04:34:59.432Z,89.60
2022-09-21T04:37:26.302Z,89.30
2022-09-21T04:39:52.893Z,89.00
2022-09-21T04:42:19.781Z,89.50
2022-09-21T04:44:46.445Z,89.20
2022-09-21T04:47:13.281Z,89.20
2022-09-21T04:49:39.924Z,89.50
2022-09-21T04:52:06.717Z,89.40
2022-09-21T04:54:33.507Z,89.80
2022-09-21T04:57:00.128Z,89.60
2022-09-21T04:59:28.617Z,89.60
2022-09-21T05:01:55.172Z,89.30
2022-09-21T05:04:21.965Z,89.60
2022-09-21T05:06:48.493Z,90.00
2022-09-21T05:09:33.769Z,89.60
2022-09-21T05:12:02.978Z,90.00
2022-09-21T05:14:29.747Z,90.00
2022-09-21T05:17:02.370Z,90.30
2022-09-21T05:19:29.187Z,90.40
2022-09-21T05:21:56.041Z,90.20
2022-09-21T05:24:22.660Z,90.00
2022-09-21T05:26:49.844Z,90.20
2022-09-21T05:29:17.595Z,90.20
2022-09-21T05:32:07.132Z,90.40
2022-09-21T05:34:43.055Z,90.90
2022-09-21T05:37:09.786Z,90.70
2022-09-21T05:39:36.635Z,90.90
2022-09-21T05:42:04.388Z,90.70
2022-09-21T05:44:31.086Z,90.90
2022-09-21T05:47:01.974Z,91.20
2022-09-21T05:49:40.526Z,91.30
2022-09-21T05:52:30.421Z,91.30
2022-09-21T05:55:15.827Z,91.30
2022-09-21T05:58:00.912Z,91.60
2022-09-21T06:00:33.916Z,91.90
2022-09-21T06:03:20.851Z,92.00
2022-09-21T06:05:47.442Z,92.20
2022-09-21T06:08:14.202Z,92.40
2022-09-21T06:10:41.019Z,92.70
2022-09-21T06:13:08.448Z,92.80
2022-09-21T06:15:38.480Z,92.70
2022-09-21T06:18:05.938Z,92.60
2022-09-21T06:20:32.801Z,92.80
2022-09-21T06:23:06.575Z,92.80
2022-09-21T06:25:33.331Z,92.90
2022-09-21T06:28:04.491Z,93.00
2022-09-21T06:30:33.532Z,93.10
2022-09-21T06:33:04.298Z,93.20
2022-09-21T06:35:31.733Z,93.20
2022-09-21T06:38:10.559Z,93.30
2022-09-21T06:40:37.618Z,93.40
2022-09-21T06:43:06.030Z,93.30
2022-09-21T06:45:32.558Z,93.30
2022-09-21T06:48:01.482Z,93.20
2022-09-21T06:50:28.255Z,93.20
2022-09-21T06:52:56.176Z,93.10
2022-09-21T06:55:22.955Z,93.00
2022-09-21T06:57:51.535Z,92.80
2022-09-21T07:00:18.101Z,92.50
2022-09-21T07:03:15.531Z,91.80
2022-09-21T07:05:49.648Z,91.40
2022-09-21T07:11:08.300Z,89.70
2022-09-21T07:13:35.571Z,89.40
2022-09-21T07:16:07.157Z,89.80
2022-09-21T07:18:44.905Z,90.40
2022-09-21T07:24:37.662Z,89.40
2022-09-21T07:34:20.025Z,87.30
2022-09-21T07:40:08.574Z,85.00
2022-09-21T07:42:35.155Z,84.40
2022-09-21T07:45:05.154Z,83.10
2022-09-21T07:47:31.925Z,82.50
2022-09-21T07:53:44.372Z,81.30
2022-09-21T07:56:15.555Z,81.30
2022-09-21T07:59:01.386Z,81.00
2022-09-21T08:01:28.633Z,78.40
2022-09-21T08:04:24.347Z,78.70
2022-09-21T08:06:50.924Z,79.20
2022-09-21T08:09:17.508Z,79.10
2022-09-21T08:11:46.434Z,79.30
2022-09-21T08:14:23.851Z,78.80
2022-09-21T08:20:25.044Z,77.50
2022-09-21T08:26:54.612Z,73.00
2022-09-21T08:29:21.337Z,73.20
2022-09-21T08:31:56.458Z,71.50
2022-09-21T08:38:14.130Z,73.50
2022-09-21T08:40:41.907Z,70.00
2022-09-21T08:43:15.414Z,70.30
2022-09-21T08:45:48.051Z,70.30
2022-09-21T08:48:36.794Z,71.10
2022-09-21T08:51:26.796Z,68.80
2022-09-21T08:53:56.818Z,69.90
2022-09-21T08:56:32.860Z,68.90
2022-09-21T08:59:15.781Z,68.90
2022-09-21T09:01:49.519Z,68.90
2022-09-21T09:04:26.563Z,67.80
2022-09-21T09:07:09.720Z,65.20
2022-09-21T09:09:56.866Z,65.10
2022-09-21T09:12:34.758Z,66.30
2022-09-21T09:15:04.287Z,67.20
2022-09-21T09:17:43.173Z,66.10
2022-09-21T09:20:19.821Z,68.20
2022-09-21T09:22:50.054Z,66.80
2022-09-21T09:25:27.085Z,64.70
2022-09-21T09:27:55.590Z,64.60
2022-09-21T09:30:26.731Z,65.60
2022-09-21T09:33:14.156Z,65.20
2022-09-21T09:35:48.167Z,66.10
2022-09-21T09:38:14.750Z,65.50
2022-09-21T09:40:44.238Z,64.90
2022-09-21T09:43:20.030Z,64.60
2022-09-21T09:45:46.582Z,65.50
2022-09-21T09:48:21.805Z,64.20
2022-09-21T09:50:48.396Z,62.20
2022-09-21T09:53:20.537Z,63.40
2022-09-21T09:55:49.565Z,63.00
2022-09-21T09:58:32.362Z,62.60
2022-09-21T10:00:59.284Z,61.60
2022-09-21T10:03:26.772Z,62.90
2022-09-21T10:05:54.629Z,62.20
2022-09-21T10:08:39.381Z,62.60
2022-09-21T10:11:06.212Z,62.30
2022-09-21T10:13:38.410Z,60.50
2022-09-21T10:16:22.181Z,61.70
2022-09-21T10:18:49.062Z,61.50
2022-09-21T10:21:21.120Z,63.00
2022-09-21T10:23:50.189Z,63.00
2022-09-21T10:26:17.243Z,61.80
2022-09-21T10:28:58.046Z,61.90
2022-09-21T10:31:28.570Z,61.30
2022-09-21T10:34:06.410Z,61.60
2022-09-21T10:36:38.784Z,59.90
2022-09-21T10:39:25.982Z,60.20
2022-09-21T10:41:54.245Z,59.20
2022-09-21T10:44:22.421Z,60.90
2022-09-21T10:46:50.681Z,60.70
2022-09-21T10:49:21.823Z,61.20
2022-09-21T10:51:50.580Z,60.60
2022-09-21T10:54:20.872Z,60.30
2022-09-21T10:56:55.717Z,59.40
2022-09-21T10:59:24.460Z,60.00
2022-09-21T11:01:53.527Z,57.80
2022-09-21T11:04:42.291Z,56.80
2022-09-21T11:07:15.081Z,58.20
2022-09-21T11:09:44.768Z,55.70
2022-09-21T11:12:17.010Z,55.60
2022-09-21T11:14:49.226Z,54.20
2022-09-21T11:17:22.209Z,55.70
2022-09-21T11:20:18.970Z,55.30
2022-09-21T11:22:57.436Z,53.40
2022-09-21T11:25:28.773Z,50.70
2022-09-21T11:27:59.571Z,48.60
2022-09-21T11:30:30.042Z,49.00
2022-09-21T11:33:11.965Z,48.80
2022-09-21T11:35:42.778Z,49.10
2022-09-21T11:38:12.205Z,51.00
2022-09-21T11:40:49.048Z,50.50
2022-09-21T11:43:34.164Z,47.40
2022-09-21T11:46:12.791Z,47.60
2022-09-21T11:48:43.255Z,47.30
2022-09-21T11:51:19.166Z,48.00
2022-09-21T11:53:54.246Z,48.80
2022-09-21T11:56:36.691Z,45.40
2022-09-21T11:59:16.430Z,46.10
2022-09-21T12:01:59.846Z,48.30
2022-09-21T12:04:45.372Z,46.80
2022-09-21T12:07:13.261Z,48.50
2022-09-21T12:09:39.965Z,47.00
2022-09-21T12:12:09.804Z,47.20
2022-09-21T12:14:43.645Z,47.60
2022-09-21T12:17:21.201Z,48.60
2022-09-21T12:19:51.925Z,49.50
2022-09-21T12:22:21.313Z,49.50
2022-09-21T12:24:50.610Z,51.00
2022-09-21T12:27:23.961Z,50.60
2022-09-21T12:29:53.253Z,50.30
2022-09-21T12:32:19.879Z,50.60
2022-09-21T12:34:50.367Z,51.40
2022-09-21T12:37:23.902Z,52.00
2022-09-21T12:40:06.939Z,51.60
2022-09-21T12:42:37.734Z,51.90
2022-09-21T12:45:08.011Z,52.20
2022-09-21T12:47:46.571Z,51.40
2022-09-21T12:50:21.680Z,51.90
2022-09-21T12:52:49.662Z,51.90
2022-09-21T12:55:27.409Z,50.90
2022-09-21T12:58:14.099Z,49.40
2022-09-21T13:00:47.354Z,47.90
2022-09-21T13:03:21.324Z,47.50
2022-09-21T13:05:56.422Z,47.90
2022-09-21T13:08:28.234Z,48.50
2022-09-21T13:10:55.933Z,50.00
2022-09-21T13:13:25.634Z,48.10
2022-09-21T13:15:52.928Z,46.40
2022-09-21T13:18:22.515Z,47.70
2022-09-21T13:20:52.275Z,47.90
2022-09-21T13:23:22.734Z,48.50
2022-09-21T13:25:58.350Z,51.20
2022-09-21T13:28:41.449Z,49.80
2022-09-21T13:31:36.747Z,50.10
2022-09-21T13:34:21.095Z,50.30
2022-09-21T13:37:06.122Z,50.40
2022-09-21T13:39:32.958Z,50.60
2022-09-21T13:42:19.767Z,49.90
2022-09-21T13:44:46.751Z,50.70
2022-09-21T13:47:14.651Z,51.30
2022-09-21T13:49:41.566Z,50.90
2022-09-21T13:52:14.500Z,51.50
2022-09-21T13:54:47.177Z,51.00
2022-09-21T13:57:24.456Z,51.60
2022-09-21T14:00:10.340Z,51.50
2022-09-21T14:02:38.594Z,51.00
2022-09-21T14:05:26.132Z,50.70
2022-09-21T14:07:58.436Z,51.70
2022-09-21T14:10:25.672Z,49.80
2022-09-21T14:12:52.433Z,49.50
2022-09-21T14:15:21.960Z,49.80
2022-09-21T14:18:08.064Z,47.60
2022-09-21T14:20:39.619Z,48.20
2022-09-21T14:23:13.750Z,47.20
2022-09-21T14:25:53.079Z,47.00
2022-09-21T14:28:48.150Z,47.60
2022-09-21T14:31:27.750Z,46.60
2022-09-21T14:33:55.892Z,48.50
2022-09-21T14:36:25.612Z,48.20
2022-09-21T14:38:58.335Z,48.30
2022-09-21T14:41:25.375Z,48.80
2022-09-21T14:43:53.658Z,48.70
2022-09-21T14:46:29.518Z,44.90
2022-09-21T14:49:19.463Z,44.30
2022-09-21T14:51:55.764Z,44.60
2022-09-21T14:54:37.373Z,46.20
2022-09-21T14:57:11.203Z,46.00
2022-09-21T14:59:40.823Z,46.70
2022-09-21T15:02:21.590Z,47.10
2022-09-21T15:04:57.363Z,48.20
2022-09-21T15:07:50.091Z,48.40
2022-09-21T15:10:53.040Z,49.30
2022-09-21T15:13:22.339Z,49.60
2022-09-21T15:15:59.016Z,49.90
2022-09-21T15:18:26.049Z,50.10
2022-09-21T15:21:01.877Z,49.70
2022-09-21T15:23:31.647Z,49.90
2022-09-21T15:26:01.690Z,50.10
2022-09-21T15:29:05.061Z,50.50
2022-09-21T15:31:25.249Z,50.20
2022-09-21T15:33:53.010Z,49.10
2022-09-21T15:36:21.515Z,48.80
2022-09-21T15:38:49.092Z,47.60
2022-09-21T15:41:37.462Z,47.80
2022-09-21T15:44:12.807Z,49.20
2022-09-21T15:46:41.700Z,49.00
2022-09-21T15:49:15.400Z,49.10
2022-09-21T15:51:45.485Z,49.10
2022-09-21T15:54:19.876Z,49.30
2022-09-21T15:56:46.989Z,49.40
2022-09-21T15:59:20.653Z,48.90
2022-09-21T16:01:50.780Z,49.00
2022-09-21T16:04:22.077Z,49.50
2022-09-21T16:07:02.974Z,49.30
2022-09-21T16:09:40.536Z,49.90
2022-09-21T16:12:25.739Z,50.30
2022-09-21T16:14:57.979Z,51.80
2022-09-21T16:17:35.538Z,50.40
2022-09-21T16:20:10.503Z,51.40
2022-09-21T16:22:38.997Z,50.20
2022-09-21T16:25:21.567Z,50.10
2022-09-21T16:27:55.641Z,50.40
2022-09-21T16:30:40.304Z,52.90
2022-09-21T16:33:25.753Z,53.70
2022-09-21T16:35:52.464Z,55.40
2022-09-21T16:38:20.325Z,55.70
2022-09-21T16:40:47.246Z,56.00
2022-09-21T16:43:16.326Z,56.70
2022-09-21T16:45:43.460Z,56.90
2022-09-21T16:48:12.380Z,57.50
2022-09-21T16:50:38.973Z,57.90
2022-09-21T16:53:05.636Z,58.80
2022-09-21T16:55:34.772Z,59.40
2022-09-21T16:58:02.261Z,58.50
2022-09-21T17:00:31.823Z,58.20
2022-09-21T17:02:58.422Z,58.30
2022-09-21T17:05:25.829Z,58.50
2022-09-21T17:07:54.677Z,59.40
2022-09-21T17:10:24.280Z,60.10
2022-09-21T17:12:52.064Z,61.00
2022-09-21T17:15:18.641Z,61.80
2022-09-21T17:17:45.286Z,63.20
2022-09-21T17:20:17.350Z,62.20
2022-09-21T17:22:44.548Z,64.60
2022-09-21T17:25:11.146Z,65.50
2022-09-21T17:27:39.090Z,65.30
2022-09-21T17:30:12.838Z,66.70
2022-09-21T17:32:42.450Z,66.60
2022-09-21T17:35:14.477Z,67.90
2022-09-21T17:37:41.289Z,67.70
2022-09-21T17:40:10.828Z,68.20
2022-09-21T17:42:42.470Z,68.30
2022-09-21T17:45:12.722Z,68.60
2022-09-21T17:47:40.735Z,68.90
2022-09-21T17:50:36.490Z,69.20
2022-09-21T17:53:22.104Z,69.90
2022-09-21T17:55:56.124Z,69.60
2022-09-21T17:58:25.028Z,69.90
2022-09-21T18:01:01.212Z,70.70
2022-09-21T18:03:29.459Z,70.00
2022-09-21T18:06:00.625Z,70.00
2022-09-21T18:08:28.662Z,70.50
2022-09-21T18:11:14.237Z,70.90
2022-09-21T18:13:48.575Z,71.40
2022-09-21T18:16:24.655Z,71.30
2022-09-21T18:18:56.509Z,71.90
2022-09-21T18:21:35.041Z,71.70
2022-09-21T18:24:18.957Z,72.40
2022-09-21T18:26:55.905Z,73.60
2022-09-21T18:29:59.823Z,73.70
2022-09-21T18:36:16.348Z,74.20
2022-09-21T18:39:17.723Z,74.20
2022-09-21T18:42:09.680Z,74.40
2022-09-21T18:45:05.921Z,75.40
2022-09-21T18:48:00.165Z,75.30
2022-09-21T18:50:50.064Z,76.30
2022-09-21T18:53:38.334Z,76.20
2022-09-21T18:56:06.681Z,75.90
2022-09-21T19:02:27.178Z,77.90
2022-09-21T19:04:54.197Z,77.50
2022-09-21T19:07:20.828Z,77.30
2022-09-21T19:09:54.944Z,77.50
2022-09-21T19:12:31.352Z,77.40
2022-09-21T19:15:17.019Z,77.90
2022-09-21T19:17:50.639Z,77.90
2022-09-21T19:20:39.445Z,78.40
2022-09-21T19:23:35.312Z,78.20
2022-09-21T19:26:05.253Z,78.10
2022-09-21T19:28:55.784Z,78.60
2022-09-21T19:31:24.734Z,78.30
2022-09-21T19:33:51.864Z,78.20
2022-09-21T19:36:20.654Z,78.60
2022-09-21T19:38:50.355Z,78.70
2022-09-21T19:41:22.993Z,79.30
2022-09-21T19:44:16.109Z,80.20
2022-09-21T19:47:16.543Z,80.30
2022-09-21T19:50:06.388Z,80.70
2022-09-21T19:52:35.476Z,82.10
2022-09-21T19:58:50.416Z,80.40
2022-09-21T20:01:25.375Z,81.00
2022-09-21T20:03:54.629Z,81.10
2022-09-21T20:06:45.208Z,82.10
2022-09-21T20:09:26.261Z,81.50
2022-09-21T20:12:13.335Z,81.60
2022-09-21T20:15:13.040Z,81.50
2022-09-21T20:17:44.881Z,82.60
2022-09-21T20:20:38.193Z,82.30
2022-09-21T20:23:12.393Z,82.10
2022-09-21T20:26:01.202Z,82.00
2022-09-21T20:28:38.831Z,81.70
2022-09-21T20:31:36.744Z,83.20
2022-09-21T20:34:04.328Z,82.50
2022-09-21T20:36:32.995Z,83.00
2022-09-21T20:38:59.938Z,82.70
2022-09-21T20:41:27.818Z,83.70
2022-09-21T20:43:56.001Z,83.50
2022-09-21T20:46:29.629Z,83.30
2022-09-21T20:49:04.899Z,83.30
2022-09-21T20:51:33.816Z,83.00
2022-09-21T20:54:02.155Z,83.20
2022-09-21T20:56:34.955Z,82.80
2022-09-21T20:59:09.160Z,82.90
2022-09-21T21:01:36.775Z,82.90
2022-09-21T21:04:04.041Z,83.30
2022-09-21T21:06:34.012Z,83.30
2022-09-21T21:09:01.149Z,83.40
2022-09-21T21:11:28.036Z,83.70
2022-09-21T21:14:16.392Z,83.50
2022-09-21T21:16:55.420Z,83.90
2022-09-21T21:19:22.252Z,83.50
2022-09-21T21:21:49.032Z,83.40
2022-09-21T21:24:35.364Z,83.40
2022-09-21T21:27:03.243Z,83.90
2022-09-21T21:29:30.719Z,84.30
2022-09-21T21:31:59.246Z,84.10
2022-09-21T21:34:33.203Z,84.10
2022-09-21T21:36:59.780Z,83.80
2022-09-21T21:39:26.340Z,83.80
2022-09-21T21:41:54.208Z,84.60
2022-09-21T21:44:28.129Z,84.30
2022-09-21T21:46:55.139Z,84.20
2022-09-21T21:49:31.177Z,84.30
2022-09-21T21:51:59.009Z,84.30
2022-09-21T21:54:34.981Z,83.90
2022-09-21T21:57:04.747Z,84.40
2022-09-21T21:59:53.256Z,83.90
2022-09-21T22:02:29.707Z,83.90
2022-09-21T22:04:56.329Z,84.00
2022-09-21T22:07:41.832Z,84.80
2022-09-21T22:10:09.445Z,84.40
2022-09-21T22:12:35.979Z,84.60
2022-09-21T22:15:03.113Z,85.60
2022-09-21T22:17:29.882Z,85.00
2022-09-21T22:19:58.489Z,85.20
2022-09-21T22:22:25.078Z,85.40
2022-09-21T22:24:54.039Z,85.50
2022-09-21T22:27:20.597Z,85.10
2022-09-21T22:29:47.360Z,85.20
2022-09-21T22:32:26.275Z,85.70
2022-09-21T22:35:08.472Z,85.60
2022-09-21T22:37:35.012Z,85.40
2022-09-21T22:40:01.892Z,85.90
2022-09-21T22:42:28.484Z,85.00
2022-09-21T22:44:55.251Z,84.80
2022-09-21T22:47:24.133Z,84.90
2022-09-21T22:49:50.651Z,85.40
2022-09-21T22:52:25.182Z,85.40
2022-09-21T22:54:51.956Z,85.30
2022-09-21T22:57:18.746Z,85.40
2022-09-21T23:00:08.228Z,85.60
2022-09-21T23:06:37.254Z,85.90
2022-09-21T23:09:05.215Z,85.80
2022-09-21T23:11:56.776Z,85.90
2022-09-21T23:14:23.597Z,86.10
2022-09-21T23:17:03.494Z,86.60
2022-09-21T23:19:30.210Z,86.30
2022-09-21T23:21:57.606Z,87.10
2022-09-21T23:25:07.420Z,86.40
2022-09-21T23:27:34.293Z,86.60
2022-09-21T23:30:01.123Z,86.10
2022-09-21T23:36:22.994Z,86.30
2022-09-21T23:38:49.979Z,86.00
2022-09-21T23:52:02.351Z,86.40
2022-09-21T23:54:29.150Z,86.20
2022-09-21T23:56:55.969Z,86.40
2022-09-21T23:59:22.516Z,86.20
